Time;durP1;ratioP1;P1;durP2;ratioP2;P2;SDS_P1;SDS_P2;PMS_P1;PMS_P2;Temp;Humidity;BMP_temperature;BMP_pressure;BME280_temperature;BME280_humidity;BME280_pressure;Samples;Min_cycle;Max_cycle;Signal;HPM_P1;HPM_P2
2021/04/02 00:00:45;;;;;;;6.75;2.42;;;24.70;29.70;;;;;;5059211;28;20547;-69
2021/04/02 00:03:17;;;;;;;5.28;2.78;;;24.80;29.70;;;;;;5073962;28;20029;-69
2021/04/02 00:05:42;;;;;;;3.63;1.75;;;24.70;29.70;;;;;;5057465;28;20040;-69
2021/04/02 00:08:17;;;;;;;3.70;1.58;;;24.70;29.70;;;;;;5057038;28;20032;-69
2021/04/02 00:10:49;;;;;;;3.60;1.90;;;24.70;29.70;;;;;;5074625;28;20075;-69
2021/04/02 00:13:16;;;;;;;7.38;2.92;;;24.70;29.70;;;;;;5054929;28;20028;-74
2021/04/02 00:19:04;;;;;;;3.67;1.20;;;24.60;29.70;;;;;;5075936;28;20036;-74
2021/04/02 00:21:29;;;;;;;5.90;2.42;;;24.60;29.70;;;;;;5066555;28;20021;-74
2021/04/02 00:23:55;;;;;;;1.58;0.85;;;24.60;29.70;;;;;;5072136;28;20040;-74
2021/04/02 00:26:21;;;;;;;8.40;1.95;;;24.60;29.70;;;;;;5034743;28;20036;-75
2021/04/02 00:28:47;;;;;;;1.27;0.73;;;24.60;29.70;;;;;;5037525;28;20033;-74
2021/04/02 00:31:13;;;;;;;2.25;1.27;;;24.60;29.70;;;;;;5077733;28;20084;-74
2021/04/02 00:33:38;;;;;;;5.05;2.05;;;24.50;29.70;;;;;;5074735;28;20454;-75
2021/04/02 00:36:05;;;;;;;5.28;2.70;;;24.50;29.70;;;;;;5058416;28;20104;-74
2021/04/02 00:38:30;;;;;;;6.30;3.03;;;24.50;29.70;;;;;;5070793;28;20028;-74
2021/04/02 00:41:04;;;;;;;2.97;1.42;;;24.50;29.70;;;;;;5066685;28;20428;-74
2021/04/02 00:43:37;;;;;;;7.72;2.75;;;24.50;29.70;;;;;;5068080;28;20039;-75
2021/04/02 00:46:03;;;;;;;5.32;1.55;;;24.50;29.70;;;;;;5058828;28;20025;-74
2021/04/02 00:48:29;;;;;;;1.33;0.95;;;24.40;29.70;;;;;;5061426;28;20079;-74
2021/04/02 00:50:55;;;;;;;8.65;3.20;;;24.40;29.70;;;;;;5055677;28;20404;-75
2021/04/02 00:53:23;;;;;;;4.95;1.92;;;24.40;29.70;;;;;;5037452;28;20035;-70
2021/04/02 00:55:49;;;;;;;7.88;2.75;;;24.40;29.80;;;;;;5056243;28;20081;-71
2021/04/02 00:58:24;;;;;;;4.50;2.35;;;24.40;29.80;;;;;;5047832;28;20479;-71
2021/04/02 01:00:50;;;;;;;5.40;3.13;;;24.40;29.80;;;;;;5095202;28;20028;-71
2021/04/02 01:03:15;;;;;;;5.72;2.88;;;24.30;29.70;;;;;;5043145;28;20119;-71
2021/04/02 01:05:45;;;;;;;4.70;2.05;;;24.30;29.80;;;;;;5051422;28;20116;-72
2021/04/02 01:08:13;;;;;;;8.73;3.13;;;24.30;30.20;;;;;;5080390;28;20075;-71
2021/04/02 01:10:39;;;;;;;5.72;3.10;;;24.30;29.70;;;;;;5074700;28;20020;-72
2021/04/02 01:13:09;;;;;;;6.35;3.58;;;24.30;29.80;;;;;;5055482;28;20048;-72
2021/04/02 01:15:34;;;;;;;9.13;3.42;;;24.30;29.80;;;;;;5056870;28;20032;-71
2021/04/02 01:18:02;;;;;;;6.25;2.42;;;24.30;29.80;;;;;;5054887;28;20017;-71
2021/04/02 01:20:31;;;;;;;10.25;2.72;;;24.20;29.80;;;;;;5080934;28;20498;-72
2021/04/02 01:22:59;;;;;;;7.72;3.92;;;24.20;29.80;;;;;;5040402;28;20480;-70
2021/04/02 01:25:40;;;;;;;1.85;1.05;;;24.20;29.80;;;;;;5057009;28;20032;-70
2021/04/02 01:28:37;;;;;;;6.05;3.20;;;24.20;29.80;;;;;;5074536;28;20045;-70
2021/04/02 01:31:03;;;;;;;9.20;3.10;;;24.20;29.80;;;;;;5056094;28;20049;-70
2021/04/02 01:33:28;;;;;;;9.25;3.20;;;24.20;29.80;;;;;;5055927;28;20094;-70
2021/04/02 01:35:55;;;;;;;6.25;3.25;;;24.10;29.80;;;;;;5056245;28;20032;-70
2021/04/02 01:38:34;;;;;;;6.50;2.40;;;24.10;30.30;;;;;;5072428;28;20031;-70
2021/04/02 01:41:01;;;;;;;6.30;2.97;;;24.10;29.80;;;;;;5046674;28;20119;-70
2021/04/02 01:43:36;;;;;;;4.40;3.13;;;24.10;29.80;;;;;;5089581;28;20020;-69
2021/04/02 01:46:03;;;;;;;3.35;2.05;;;24.10;29.80;;;;;;5056426;28;20032;-70
2021/04/02 01:48:28;;;;;;;8.95;3.85;;;24.10;29.80;;;;;;5045729;28;20032;-69
2021/04/02 01:50:54;;;;;;;5.13;2.40;;;24.10;29.80;;;;;;5053853;28;20029;-69
2021/04/02 01:53:21;;;;;;;5.30;1.90;;;24.10;29.80;;;;;;5078523;28;20040;-69
2021/04/02 01:55:48;;;;;;;8.38;3.72;;;24.00;29.80;;;;;;5056261;28;20028;-70
2021/04/02 01:58:13;;;;;;;7.25;3.35;;;24.10;29.80;;;;;;5038692;28;20028;-69
2021/04/02 02:00:45;;;;;;;9.48;2.25;;;24.10;29.80;;;;;;5038802;28;20048;-69
2021/04/02 02:03:11;;;;;;;6.35;3.47;;;24.00;29.70;;;;;;5073738;28;20024;-69
2021/04/02 02:05:36;;;;;;;8.25;3.58;;;24.00;29.70;;;;;;5053593;28;20029;-69
2021/04/02 02:08:03;;;;;;;7.88;3.78;;;24.10;29.70;;;;;;5088413;28;20462;-69
2021/04/02 02:10:28;;;;;;;8.27;3.67;;;24.00;29.70;;;;;;5054346;28;20480;-69
2021/04/02 02:12:54;;;;;;;6.00;3.72;;;24.00;29.70;;;;;;5052166;28;20198;-69
2021/04/02 02:15:20;;;;;;;12.32;3.75;;;24.00;29.70;;;;;;5039097;28;20036;-69
2021/04/02 02:18:07;;;;;;;8.27;3.75;;;24.00;29.70;;;;;;5038814;28;20029;-69
2021/04/02 02:20:33;;;;;;;8.27;4.13;;;24.00;29.70;;;;;;5052471;28;20052;-69
2021/04/02 02:22:58;;;;;;;7.30;4.00;;;24.00;29.70;;;;;;5035664;28;20021;-69
2021/04/02 02:25:28;;;;;;;6.82;3.72;;;24.00;29.70;;;;;;5035340;28;20049;-69
2021/04/02 02:27:53;;;;;;;7.07;3.97;;;24.00;29.70;;;;;;5041223;28;20508;-69
2021/04/02 02:30:21;;;;;;;7.15;4.20;;;24.00;29.70;;;;;;5085519;28;20121;-69
2021/04/02 02:32:47;;;;;;;6.95;4.18;;;24.00;29.70;;;;;;5041986;28;20033;-69
2021/04/02 02:35:12;;;;;;;8.50;3.88;;;24.00;29.70;;;;;;5075468;28;20048;-69
2021/04/02 02:37:40;;;;;;;9.25;4.03;;;24.00;29.70;;;;;;5072996;28;20049;-69
2021/04/02 02:40:33;;;;;;;4.20;2.13;;;23.90;29.80;;;;;;5070021;28;20028;-69
2021/04/02 02:42:59;;;;;;;6.60;2.22;;;23.90;29.70;;;;;;5046571;28;20055;-68
2021/04/02 02:45:25;;;;;;;6.82;3.42;;;23.90;29.70;;;;;;5072897;28;20496;-69
2021/04/02 02:47:51;;;;;;;5.47;2.45;;;23.90;29.70;;;;;;5084220;28;20029;-69
2021/04/02 02:50:30;;;;;;;8.27;4.38;;;23.90;29.70;;;;;;5068478;28;20032;-69
2021/04/02 02:52:56;;;;;;;6.78;4.00;;;23.90;29.70;;;;;;5052924;28;20025;-69
2021/04/02 02:55:24;;;;;;;10.65;4.32;;;23.80;29.70;;;;;;5085399;28;20017;-68
2021/04/02 02:57:50;;;;;;;6.97;4.00;;;23.80;29.70;;;;;;5053590;28;20025;-69
2021/04/02 03:00:18;;;;;;;8.30;4.68;;;23.80;30.10;;;;;;5036101;28;20032;-69
2021/04/02 03:02:46;;;;;;;8.65;3.95;;;23.80;29.70;;;;;;5048373;28;20404;-69
2021/04/02 03:05:25;;;;;;;6.82;4.53;;;23.80;29.70;;;;;;5051652;28;20048;-68
2021/04/02 03:07:55;;;;;;;6.35;4.10;;;23.80;29.70;;;;;;5085185;28;20519;-69
2021/04/02 03:10:34;;;;;;;7.65;4.93;;;23.80;29.70;;;;;;5046643;28;20027;-68
2021/04/02 03:13:00;;;;;;;6.22;3.67;;;23.80;29.70;;;;;;5054748;28;20082;-68
2021/04/02 03:15:26;;;;;;;8.52;4.70;;;23.80;29.80;;;;;;5053607;28;20450;-68
2021/04/02 03:17:56;;;;;;;3.90;3.17;;;23.80;29.80;;;;;;5074929;28;20396;-76
2021/04/02 03:20:22;;;;;;;7.45;5.00;;;23.80;29.80;;;;;;5058022;28;20067;-74
2021/04/02 03:22:48;;;;;;;8.27;5.20;;;23.70;29.80;;;;;;5068153;28;20033;-74
2021/04/02 03:25:16;;;;;;;8.13;4.68;;;23.70;29.80;;;;;;5084157;28;20048;-74
2021/04/02 03:27:42;;;;;;;7.45;4.80;;;23.70;29.80;;;;;;5066974;28;20028;-74
2021/04/02 03:30:09;;;;;;;7.93;4.13;;;23.70;29.80;;;;;;5054050;28;20052;-68
2021/04/02 03:32:35;;;;;;;7.95;4.13;;;23.70;29.80;;;;;;5043804;28;20440;-68
2021/04/02 03:35:02;;;;;;;9.73;5.07;;;23.60;29.80;;;;;;5067802;28;20033;-69
2021/04/02 03:37:28;;;;;;;8.82;4.20;;;23.60;29.80;;;;;;5067440;28;20025;-74
2021/04/02 03:39:53;;;;;;;6.88;3.88;;;23.60;29.80;;;;;;5067786;28;20492;-75
2021/04/02 03:42:19;;;;;;;7.78;3.65;;;23.60;29.80;;;;;;5050849;28;20393;-74
2021/04/02 03:44:45;;;;;;;2.70;1.88;;;23.60;29.80;;;;;;5068226;28;20028;-75
2021/04/02 03:47:16;;;;;;;7.03;3.85;;;23.60;29.90;;;;;;5034849;28;20021;-74
2021/04/02 03:49:42;;;;;;;5.32;3.78;;;23.60;29.90;;;;;;5067702;28;20029;-75
2021/04/02 03:52:10;;;;;;;5.50;3.17;;;23.60;29.90;;;;;;5082297;28;20031;-75
2021/04/02 03:54:36;;;;;;;4.35;3.28;;;23.60;29.90;;;;;;5043634;28;20390;-74
2021/04/02 03:57:02;;;;;;;6.65;3.35;;;23.60;29.90;;;;;;5078826;28;20016;-75
2021/04/02 03:59:28;;;;;;;9.27;3.95;;;23.50;29.90;;;;;;5050273;28;20104;-75
2021/04/02 04:01:54;;;;;;;1.30;0.73;;;23.50;29.90;;;;;;5068176;28;20025;-75
2021/04/02 04:04:29;;;;;;;4.72;0.22;;;23.50;29.90;;;;;;5067737;28;20615;-75
2021/04/02 04:06:58;;;;;;;1.77;0.30;;;23.50;29.90;;;;;;5066447;28;20071;-75
2021/04/02 04:09:26;;;;;;;0.80;0.45;;;23.50;30.00;;;;;;5052069;28;20412;-74
2021/04/02 04:11:51;;;;;;;0.55;0.45;;;23.40;29.90;;;;;;5069477;28;20028;-75
2021/04/02 04:14:17;;;;;;;0.68;0.32;;;23.40;30.00;;;;;;5097159;28;20024;-75
2021/04/02 04:16:43;;;;;;;0.30;0.30;;;23.40;30.00;;;;;;5072210;28;20513;-75
2021/04/02 04:19:09;;;;;;;0.65;0.20;;;23.40;30.00;;;;;;5073727;28;20411;-75
2021/04/02 04:21:41;;;;;;;1.23;0.35;;;23.40;30.00;;;;;;5036581;28;20079;-69
2021/04/02 04:24:07;;;;;;;1.20;0.30;;;23.40;30.00;;;;;;5071096;28;20040;-69
2021/04/02 04:26:33;;;;;;;0.10;0.10;;;23.30;29.90;;;;;;5090454;28;20025;-69
2021/04/02 04:28:59;;;;;;;1.15;0.43;;;23.30;29.90;;;;;;5057894;28;20447;-69
2021/04/02 04:31:24;;;;;;;0.13;0.10;;;23.30;29.90;;;;;;5091074;28;20250;-75
2021/04/02 04:33:53;;;;;;;0.30;0.15;;;23.30;29.90;;;;;;5068806;28;20033;-74
2021/04/02 04:36:19;;;;;;;0.50;0.30;;;23.30;29.90;;;;;;5053612;28;20032;-75
2021/04/02 04:38:45;;;;;;;1.15;0.15;;;23.30;29.90;;;;;;5056774;28;20029;-76
2021/04/02 04:41:10;;;;;;;1.33;0.30;;;23.30;29.90;;;;;;5073734;28;20016;-76
2021/04/02 04:43:36;;;;;;;0.60;0.32;;;23.30;29.90;;;;;;5057734;28;20159;-76
2021/04/02 04:46:02;;;;;;;2.13;0.25;;;23.30;29.90;;;;;;5052147;28;20024;-75
2021/04/02 04:48:28;;;;;;;1.42;0.10;;;23.30;29.90;;;;;;5070822;28;20021;-75
2021/04/02 04:50:54;;;;;;;0.95;0.40;;;23.30;29.90;;;;;;5070739;28;20022;-68
2021/04/02 04:53:25;;;;;;;2.13;0.70;;;23.30;29.80;;;;;;5070252;28;20094;-69
2021/04/02 04:55:52;;;;;;;1.42;0.30;;;23.30;29.80;;;;;;5078909;28;20020;-70
2021/04/02 04:58:18;;;;;;;1.30;0.40;;;23.30;29.80;;;;;;5037837;28;20033;-71
2021/04/02 05:00:44;;;;;;;0.32;0.22;;;23.30;29.80;;;;;;5049286;28;20029;-71
2021/04/02 05:03:12;;;;;;;14.70;0.38;;;23.30;29.80;;;;;;5065653;28;20036;-70
2021/04/02 05:05:40;;;;;;;0.38;0.22;;;23.30;29.70;;;;;;5040127;28;20112;-70
2021/04/02 05:08:06;;;;;;;1.65;0.47;;;23.30;29.80;;;;;;5057158;28;20469;-71
2021/04/02 05:10:32;;;;;;;0.90;0.38;;;23.30;29.90;;;;;;5039870;28;20075;-71
2021/04/02 05:12:58;;;;;;;2.33;1.05;;;23.30;29.90;;;;;;5074964;28;20024;-71
2021/04/02 05:15:24;;;;;;;0.88;0.50;;;23.20;29.90;;;;;;5058537;28;20554;-71
2021/04/02 05:17:51;;;;;;;0.30;0.30;;;23.20;29.90;;;;;;5040461;28;20049;-71
2021/04/02 05:20:17;;;;;;;0.50;0.50;;;23.20;29.90;;;;;;5040017;28;20055;-71
2021/04/02 05:22:42;;;;;;;0.55;0.20;;;23.20;29.90;;;;;;5038630;28;20415;-71
2021/04/02 05:25:08;;;;;;;0.55;0.30;;;23.10;29.90;;;;;;5056581;28;20035;-71
2021/04/02 05:27:35;;;;;;;0.25;0.25;;;23.10;29.90;;;;;;5074662;28;20039;-71
2021/04/02 05:30:00;;;;;;;0.63;0.20;;;23.10;29.90;;;;;;5074226;28;20419;-72
2021/04/02 05:32:26;;;;;;;0.00;0.00;;;23.10;30.00;;;;;;5072692;28;20036;-71
2021/04/02 05:34:52;;;;;;;1.65;0.47;;;23.10;30.00;;;;;;5076391;28;20044;-72
2021/04/02 05:37:17;;;;;;;0.30;0.10;;;23.10;30.00;;;;;;5062825;28;20021;-72
2021/04/02 05:39:43;;;;;;;1.15;0.30;;;23.10;30.00;;;;;;5066432;28;20425;-72
2021/04/02 05:42:09;;;;;;;0.20;0.20;;;23.10;30.00;;;;;;5081756;28;20051;-71
2021/04/02 05:44:36;;;;;;;0.32;0.32;;;23.10;30.00;;;;;;5047449;28;20468;-71
2021/04/02 05:47:03;;;;;;;0.30;0.20;;;23.10;30.00;;;;;;5036153;28;20037;-71
2021/04/02 05:49:29;;;;;;;0.30;0.20;;;23.10;30.10;;;;;;5050185;28;20028;-76
2021/04/02 05:51:56;;;;;;;3.17;0.10;;;23.10;30.10;;;;;;5072581;28;20036;-76
2021/04/02 05:54:38;;;;;;;3.72;0.40;;;23.10;30.10;;;;;;5047062;28;20040;-76
2021/04/02 05:57:04;;;;;;;1.55;0.70;;;23.10;30.10;;;;;;5072065;28;20032;-76
2021/04/02 05:59:29;;;;;;;1.10;0.40;;;23.10;30.10;;;;;;5085305;28;20147;-76
2021/04/02 06:01:55;;;;;;;0.00;0.00;;;23.10;30.10;;;;;;5086962;28;20539;-76
2021/04/02 06:04:30;;;;;;;0.38;0.20;;;23.10;30.10;;;;;;5086569;28;20063;-72
2021/04/02 06:06:56;;;;;;;0.10;0.10;;;23.10;30.00;;;;;;5085816;28;20028;-72
2021/04/02 06:09:21;;;;;;;0.88;0.60;;;23.10;30.00;;;;;;5085123;28;20044;-71
2021/04/02 06:11:47;;;;;;;0.55;0.10;;;23.10;30.00;;;;;;5068426;28;20044;-72
2021/04/02 06:14:13;;;;;;;0.43;0.10;;;23.10;30.00;;;;;;5068307;28;20101;-72
2021/04/02 06:16:38;;;;;;;2.72;0.32;;;23.10;30.00;;;;;;5053843;28;20104;-71
2021/04/02 06:19:09;;;;;;;0.30;0.30;;;23.10;30.00;;;;;;5087760;28;20393;-71
2021/04/02 06:21:53;;;;;;;0.55;0.20;;;23.10;30.00;;;;;;5067817;28;20036;-71
2021/04/02 06:24:37;;;;;;;0.85;0.45;;;23.10;30.00;;;;;;5068353;28;20400;-71
2021/04/02 06:27:04;;;;;;;0.40;0.20;;;23.10;30.00;;;;;;5069710;28;20095;-71
2021/04/02 06:29:29;;;;;;;0.95;0.22;;;23.10;30.00;;;;;;5068032;28;20025;-76
2021/04/02 06:31:56;;;;;;;0.82;0.40;;;23.00;30.00;;;;;;5069054;28;20050;-77
2021/04/02 06:34:21;;;;;;;1.00;0.38;;;23.00;30.00;;;;;;5061054;28;20044;-76
2021/04/02 06:36:49;;;;;;;0.52;0.28;;;23.00;30.00;;;;;;5082988;28;20037;-76
2021/04/02 06:39:14;;;;;;;0.30;0.25;;;23.00;30.00;;;;;;5075827;28;20074;-76
2021/04/02 06:41:40;;;;;;;0.32;0.30;;;22.90;30.00;;;;;;5073055;28;20032;-78
2021/04/02 06:44:08;;;;;;;0.50;0.45;;;23.00;30.00;;;;;;5037762;28;20021;-74
2021/04/02 06:46:35;;;;;;;0.77;0.20;;;22.90;30.00;;;;;;5050091;28;20107;-75
2021/04/02 06:49:09;;;;;;;1.15;0.30;;;23.00;30.00;;;;;;5054835;28;20154;-77
2021/04/02 06:51:36;;;;;;;0.30;0.30;;;23.00;29.90;;;;;;5073257;28;20035;-76
2021/04/02 06:54:01;;;;;;;0.93;0.15;;;23.10;29.80;;;;;;5045468;28;20028;-74
2021/04/02 06:56:27;;;;;;;1.02;0.40;;;23.20;29.80;;;;;;5038484;28;20025;-75
2021/04/02 06:58:52;;;;;;;0.20;0.20;;;23.20;29.70;;;;;;5067348;28;20037;-76
2021/04/02 07:01:18;;;;;;;0.20;0.20;;;23.30;29.80;;;;;;5076705;28;20039;-75
2021/04/02 07:03:44;;;;;;;0.15;0.15;;;23.30;29.50;;;;;;5054984;28;20051;-75
2021/04/02 07:06:10;;;;;;;0.52;0.45;;;23.40;29.50;;;;;;5049931;28;20020;-75
2021/04/02 07:08:39;;;;;;;0.50;0.50;;;23.40;29.50;;;;;;5050271;28;20056;-74
2021/04/02 07:11:05;;;;;;;0.30;0.30;;;23.40;29.50;;;;;;5037873;28;20122;-72
2021/04/02 07:13:51;;;;;;;0.73;0.32;;;23.40;29.40;;;;;;5021251;28;20036;-75
2021/04/02 07:16:18;;;;;;;1.15;0.50;;;23.40;29.40;;;;;;5050545;28;20064;-75
2021/04/02 07:18:43;;;;;;;0.98;0.40;;;23.50;29.50;;;;;;5070480;28;20024;-74
2021/04/02 07:21:18;;;;;;;0.30;0.20;;;23.50;30.00;;;;;;5070511;28;20027;-74
2021/04/02 07:23:44;;;;;;;0.82;0.30;;;23.50;29.50;;;;;;5054306;28;20123;-75
2021/04/02 07:26:10;;;;;;;1.10;0.40;;;23.40;29.40;;;;;;5018711;28;20491;-74
2021/04/02 07:28:36;;;;;;;1.55;0.20;;;23.40;29.50;;;;;;5071748;28;20025;-74
2021/04/02 07:31:02;;;;;;;2.30;0.35;;;23.40;29.50;;;;;;5070069;28;20045;-76
2021/04/02 07:33:28;;;;;;;0.32;0.32;;;23.40;29.70;;;;;;5072591;28;20082;-74
2021/04/02 07:36:01;;;;;;;4.88;0.40;;;23.30;29.70;;;;;;5054740;28;20099;-75
2021/04/02 07:38:31;;;;;;;0.90;0.40;;;23.30;29.90;;;;;;5070531;28;20070;-74
2021/04/02 07:40:57;;;;;;;0.20;0.20;;;23.30;30.00;;;;;;5037152;28;20033;-75
2021/04/02 07:43:29;;;;;;;0.45;0.10;;;23.30;30.00;;;;;;5054330;28;20094;-75
2021/04/02 07:46:10;;;;;;;0.63;0.50;;;23.30;29.90;;;;;;5054608;28;20021;-74
2021/04/02 07:48:36;;;;;;;0.75;0.40;;;23.30;30.50;;;;;;5060019;28;20074;-74
2021/04/02 07:51:01;;;;;;;1.67;0.22;;;23.30;30.00;;;;;;5076315;28;20046;-74
2021/04/02 07:53:33;;;;;;;0.85;0.30;;;23.30;29.90;;;;;;5058605;28;20119;-75
2021/04/02 07:56:09;;;;;;;1.45;0.50;;;23.20;29.80;;;;;;5076078;28;20449;-74
2021/04/02 07:58:39;;;;;;;0.30;0.30;;;23.20;29.90;;;;;;5059112;28;20029;-75
2021/04/02 08:01:04;;;;;;;0.30;0.17;;;23.20;29.80;;;;;;5058639;28;20063;-72
2021/04/02 08:03:30;;;;;;;0.60;0.60;;;23.20;29.90;;;;;;5058501;28;20025;-72
2021/04/02 08:06:09;;;;;;;0.40;0.30;;;23.20;29.90;;;;;;5058291;28;20046;-72
2021/04/02 08:08:42;;;;;;;1.33;0.50;;;23.10;29.90;;;;;;5057735;28;20083;-73
2021/04/02 08:11:43;;;;;;;1.50;0.38;;;23.20;29.90;;;;;;5057677;28;20036;-72
2021/04/02 08:14:15;;;;;;;2.25;0.60;;;23.10;29.90;;;;;;5000037;28;20042;-72
2021/04/02 08:16:53;;;;;;;0.63;0.40;;;23.10;29.90;;;;;;5011954;28;20081;-71
2021/04/02 08:19:19;;;;;;;0.68;0.32;;;23.10;29.90;;;;;;4977160;28;20034;-74
2021/04/02 08:21:52;;;;;;;0.80;0.50;;;23.10;29.90;;;;;;4994559;28;20034;-74
2021/04/02 08:24:20;;;;;;;0.43;0.43;;;23.10;29.90;;;;;;4994258;28;20313;-74
2021/04/02 08:26:45;;;;;;;0.30;0.30;;;23.10;30.00;;;;;;4978336;28;20034;-75
2021/04/02 08:29:12;;;;;;;0.60;0.30;;;23.10;30.00;;;;;;4969280;28;20039;-74
2021/04/02 08:31:42;;;;;;;0.38;0.38;;;23.10;30.00;;;;;;4957882;28;20107;-74
2021/04/02 08:34:13;;;;;;;0.47;0.32;;;23.10;30.00;;;;;;4941588;28;20046;-75
2021/04/02 08:36:39;;;;;;;0.28;0.25;;;23.00;30.00;;;;;;4974675;28;20061;-74
2021/04/02 08:39:05;;;;;;;0.70;0.28;;;23.00;30.00;;;;;;4958433;28;20039;-74
2021/04/02 08:41:30;;;;;;;0.65;0.30;;;23.00;30.00;;;;;;4974494;28;20525;-74
2021/04/02 08:43:57;;;;;;;1.98;0.85;;;23.00;30.00;;;;;;4974656;28;20082;-74
2021/04/02 08:46:32;;;;;;;0.30;0.20;;;23.10;30.00;;;;;;4974384;28;20113;-74
2021/04/02 08:49:05;;;;;;;1.13;0.55;;;23.10;30.10;;;;;;4984993;28;20141;-71
2021/04/02 08:51:30;;;;;;;0.32;0.22;;;23.00;30.10;;;;;;5053634;28;20037;-71
2021/04/02 08:53:56;;;;;;;0.35;0.30;;;23.00;30.80;;;;;;5057190;28;20151;-71
2021/04/02 08:56:27;;;;;;;2.42;0.30;;;23.00;30.10;;;;;;5075130;28;20025;-71
2021/04/02 08:58:53;;;;;;;0.82;0.30;;;23.00;30.20;;;;;;5074802;28;20107;-71
2021/04/02 09:01:19;;;;;;;0.35;0.20;;;23.00;30.20;;;;;;5051095;28;20084;-71
2021/04/02 09:03:45;;;;;;;0.70;0.50;;;23.00;30.30;;;;;;5055163;28;20411;-71
2021/04/02 09:06:10;;;;;;;3.95;0.43;;;23.00;30.20;;;;;;5054132;28;20480;-70
2021/04/02 09:08:36;;;;;;;0.47;0.20;;;23.00;30.30;;;;;;5055078;28;20029;-71
2021/04/02 09:11:04;;;;;;;0.30;0.30;;;23.00;30.30;;;;;;5074647;28;20052;-71
2021/04/02 09:13:40;;;;;;;0.30;0.20;;;23.00;30.30;;;;;;5056420;28;20127;-71
2021/04/02 09:16:11;;;;;;;0.85;0.20;;;23.00;30.30;;;;;;5046885;28;20024;-71
2021/04/02 09:18:56;;;;;;;0.43;0.20;;;23.00;30.30;;;;;;5057074;28;20027;-71
2021/04/02 09:21:23;;;;;;;2.78;0.40;;;23.00;30.30;;;;;;5056667;28;20515;-71
2021/04/02 09:23:52;;;;;;;3.42;0.38;;;23.00;30.30;;;;;;5054764;28;20029;-71
2021/04/02 09:26:18;;;;;;;0.52;0.30;;;23.10;30.10;;;;;;5036906;28;20021;-71
2021/04/02 09:28:44;;;;;;;2.80;0.35;;;23.20;30.70;;;;;;5054252;28;20408;-71
2021/04/02 09:31:26;;;;;;;0.30;0.30;;;23.30;30.00;;;;;;5069684;28;20091;-71
2021/04/02 09:33:56;;;;;;;0.30;0.30;;;23.30;29.90;;;;;;5052532;28;20029;-71
2021/04/02 09:36:22;;;;;;;0.20;0.20;;;23.40;29.90;;;;;;5069354;28;20013;-71
2021/04/02 09:38:48;;;;;;;0.40;0.08;;;23.40;29.80;;;;;;5052847;28;20017;-72
2021/04/02 09:41:14;;;;;;;0.40;0.20;;;23.50;29.70;;;;;;5069520;28;20032;-71
2021/04/02 09:43:47;;;;;;;0.38;0.20;;;23.50;29.70;;;;;;5069751;28;20096;-72
2021/04/02 09:46:32;;;;;;;0.52;0.10;;;23.60;29.60;;;;;;5056693;28;20021;-71
2021/04/02 09:49:08;;;;;;;0.20;0.20;;;23.60;29.50;;;;;;5038754;28;20024;-71
2021/04/02 09:51:36;;;;;;;0.52;0.10;;;23.70;29.50;;;;;;5056097;28;20024;-74
2021/04/02 09:54:01;;;;;;;0.13;0.10;;;23.70;29.50;;;;;;5056245;28;20017;-74
2021/04/02 09:56:33;;;;;;;4.57;0.30;;;23.70;29.50;;;;;;5055940;28;20062;-75
2021/04/02 09:58:59;;;;;;;0.20;0.17;;;23.70;29.40;;;;;;5038795;28;20496;-75
2021/04/02 10:01:24;;;;;;;0.30;0.30;;;23.80;29.50;;;;;;5056106;28;20052;-75
2021/04/02 10:03:50;;;;;;;0.00;0.00;;;23.80;29.50;;;;;;5073741;28;20021;-75
2021/04/02 10:06:16;;;;;;;0.65;0.20;;;23.80;29.50;;;;;;5050359;28;20489;-74
2021/04/02 10:08:42;;;;;;;0.70;0.20;;;23.80;29.50;;;;;;5035044;28;20095;-75
2021/04/02 10:11:07;;;;;;;0.60;0.30;;;23.80;29.40;;;;;;5058485;28;20071;-75
2021/04/02 10:13:33;;;;;;;1.45;0.40;;;23.80;29.40;;;;;;5065185;28;20025;-75
2021/04/02 10:15:59;;;;;;;0.70;0.40;;;23.80;29.40;;;;;;5045937;28;20170;-74
2021/04/02 10:18:27;;;;;;;0.00;0.00;;;23.90;29.30;;;;;;5055855;28;20170;-74
2021/04/02 10:20:53;;;;;;;0.10;0.10;;;23.90;29.20;;;;;;5083578;28;20112;-75
2021/04/02 10:23:18;;;;;;;0.20;0.13;;;24.00;29.20;;;;;;5052567;28;20115;-74
2021/04/02 10:25:44;;;;;;;0.75;0.30;;;24.00;29.20;;;;;;5069164;28;20048;-75
2021/04/02 10:28:09;;;;;;;0.65;0.20;;;24.00;29.20;;;;;;5071095;28;20396;-74
2021/04/02 10:30:35;;;;;;;0.50;0.32;;;24.00;29.20;;;;;;5037352;28;20053;-75
2021/04/02 10:33:00;;;;;;;2.63;0.20;;;24.10;29.20;;;;;;5071691;28;20043;-74
2021/04/02 10:35:29;;;;;;;0.22;0.22;;;24.10;29.20;;;;;;5052824;28;20522;-74
2021/04/02 10:37:54;;;;;;;0.65;0.10;;;24.10;29.10;;;;;;5053069;28;20024;-74
2021/04/02 10:40:20;;;;;;;1.85;0.40;;;24.10;29.00;;;;;;5045291;28;20311;-74
2021/04/02 10:42:46;;;;;;;0.90;0.40;;;24.10;28.90;;;;;;5047673;28;20491;-75
2021/04/02 10:45:12;;;;;;;0.30;0.30;;;24.20;28.90;;;;;;5050548;28;20032;-74
2021/04/02 10:47:37;;;;;;;1.08;0.22;;;24.20;28.80;;;;;;5053006;28;20036;-74
2021/04/02 10:50:03;;;;;;;0.45;0.28;;;24.30;28.80;;;;;;5053035;28;20094;-74
2021/04/02 10:52:29;;;;;;;1.30;0.50;;;24.30;28.70;;;;;;5070474;28;20032;-71
2021/04/02 10:54:54;;;;;;;1.33;0.15;;;24.40;28.60;;;;;;5051100;28;20432;-71
2021/04/02 10:57:21;;;;;;;0.10;0.10;;;24.50;28.60;;;;;;5047783;28;20078;-71
2021/04/02 10:59:46;;;;;;;0.65;0.20;;;24.50;28.50;;;;;;5061400;28;20032;-71
2021/04/02 11:02:12;;;;;;;0.47;0.28;;;24.50;28.50;;;;;;5038499;28;20037;-72
2021/04/02 11:04:40;;;;;;;0.10;0.10;;;24.50;28.50;;;;;;5077933;28;20119;-72
2021/04/02 11:07:08;;;;;;;0.10;0.10;;;24.60;28.50;;;;;;5069959;28;20418;-72
2021/04/02 11:09:34;;;;;;;0.20;0.10;;;24.50;28.50;;;;;;5040991;28;20028;-71
2021/04/02 11:12:00;;;;;;;0.20;0.20;;;24.50;29.10;;;;;;5075682;28;20044;-71
2021/04/02 11:14:26;;;;;;;0.10;0.10;;;24.50;28.70;;;;;;5035568;28;20029;-71
2021/04/02 11:16:51;;;;;;;0.10;0.10;;;24.40;28.70;;;;;;5038327;28;20029;-71
2021/04/02 11:19:17;;;;;;;0.30;0.10;;;24.40;28.70;;;;;;5058065;28;20036;-74
2021/04/02 11:21:42;;;;;;;0.90;0.10;;;24.40;28.70;;;;;;5084533;28;20032;-74
2021/04/02 11:24:08;;;;;;;0.00;0.00;;;24.40;28.70;;;;;;5038053;28;20097;-75
2021/04/02 11:26:34;;;;;;;0.45;0.05;;;24.30;28.70;;;;;;5041489;28;21361;-74
2021/04/02 11:29:12;;;;;;;0.40;0.30;;;24.30;28.80;;;;;;5082209;28;20036;-74
2021/04/02 11:31:37;;;;;;;0.20;0.20;;;24.30;28.80;;;;;;5062041;28;20045;-74
2021/04/02 11:34:03;;;;;;;0.57;0.20;;;24.30;28.90;;;;;;5070223;28;20387;-74
2021/04/02 11:36:29;;;;;;;0.20;0.20;;;24.30;28.80;;;;;;5069373;28;20440;-74
2021/04/02 11:38:54;;;;;;;0.20;0.20;;;24.40;28.80;;;;;;5079012;28;20044;-75
2021/04/02 11:41:20;;;;;;;0.70;0.40;;;24.40;28.70;;;;;;5043995;28;20480;-75
2021/04/02 11:43:45;;;;;;;0.10;0.10;;;24.40;28.60;;;;;;5053093;28;20028;-74
2021/04/02 11:46:11;;;;;;;1.38;0.47;;;24.50;28.60;;;;;;5070114;28;20039;-75
2021/04/02 11:49:07;;;;;;;0.43;0.08;;;24.50;28.60;;;;;;5049729;28;20020;-71
2021/04/02 11:52:07;;;;;;;0.75;0.43;;;24.50;28.50;;;;;;5039101;28;20127;-71
2021/04/02 11:54:33;;;;;;;0.10;0.10;;;24.50;28.50;;;;;;5052558;28;20025;-70
2021/04/02 11:56:58;;;;;;;0.30;0.30;;;24.50;28.50;;;;;;5047659;28;20105;-70
2021/04/02 11:59:24;;;;;;;1.35;0.43;;;24.50;28.50;;;;;;5064942;28;20048;-70
2021/04/02 12:01:53;;;;;;;0.52;0.10;;;24.60;28.50;;;;;;5044143;28;20439;-70
2021/04/02 12:04:18;;;;;;;0.77;0.10;;;24.60;28.50;;;;;;5033261;28;20024;-70
2021/04/02 12:06:44;;;;;;;0.30;0.20;;;24.60;28.40;;;;;;5054282;28;20557;-74
2021/04/02 12:09:11;;;;;;;0.13;0.13;;;24.60;28.40;;;;;;5067530;28;20037;-74
2021/04/02 12:11:37;;;;;;;1.23;0.50;;;24.70;28.40;;;;;;5070895;28;20499;-74
2021/04/02 12:14:08;;;;;;;0.10;0.10;;;24.70;28.30;;;;;;5070403;28;20042;-75
2021/04/02 12:16:35;;;;;;;0.00;0.00;;;24.70;28.20;;;;;;5070921;28;20029;-76
2021/04/02 12:19:02;;;;;;;0.98;0.20;;;24.80;28.20;;;;;;5071868;28;20111;-75
2021/04/02 12:21:31;;;;;;;0.20;0.20;;;24.80;28.10;;;;;;5070586;28;20123;-75
2021/04/02 12:23:58;;;;;;;1.38;0.50;;;24.80;28.10;;;;;;5070204;28;20029;-75
2021/04/02 12:26:24;;;;;;;1.25;0.65;;;24.80;28.10;;;;;;5072102;28;20095;-75
2021/04/02 12:28:49;;;;;;;0.30;0.17;;;24.90;28.00;;;;;;5071914;28;20117;-70
2021/04/02 12:31:15;;;;;;;2.28;0.40;;;24.90;28.00;;;;;;5066783;28;20068;-70
2021/04/02 12:33:41;;;;;;;0.20;0.15;;;24.90;27.90;;;;;;5073512;28;20032;-70
2021/04/02 12:36:08;;;;;;;1.33;0.40;;;25.00;27.90;;;;;;5074443;28;20056;-70
2021/04/02 12:38:34;;;;;;;0.25;0.25;;;25.00;27.90;;;;;;5074478;28;20020;-70
2021/04/02 12:40:59;;;;;;;0.63;0.30;;;25.10;27.80;;;;;;5074068;28;20055;-70
2021/04/02 12:43:25;;;;;;;0.43;0.28;;;25.10;27.70;;;;;;5074078;28;20127;-74
2021/04/02 12:45:50;;;;;;;0.60;0.30;;;25.10;27.50;;;;;;5075239;28;20036;-75
2021/04/02 12:48:16;;;;;;;0.10;0.10;;;25.20;27.40;;;;;;5075217;28;20033;-75
2021/04/02 12:50:41;;;;;;;0.20;0.20;;;25.20;27.30;;;;;;5074243;28;20024;-74
2021/04/02 12:53:07;;;;;;;0.90;0.10;;;25.30;27.30;;;;;;5073469;28;20094;-70